Time;durP1;ratioP1;P1;durP2;ratioP2;P2;SDS_P1;SDS_P2;PMS_P1;PMS_P2;Temp;Humidity;BMP_temperature;BMP_pressure;BME280_temperature;BME280_humidity;BME280_pressure;Samples;Min_cycle;Max_cycle;Signal;HPM_P1;HPM_P2
2023/02/12 00:00:20;;;;;;;15.50;7.20;;;;;;;3.85;88.47;101126.86;217950;1256;142148;-71
2023/02/12 00:05:45;;;;;;;7.90;5.10;;;;;;;3.62;87.89;101130.17;219201;1254;139780;-69
2023/02/12 00:10:48;;;;;;;10.20;4.40;;;;;;;3.47;87.85;101138.51;217954;1254;139823;-68
2023/02/12 00:15:52;;;;;;;7.80;4.10;;;;;;;3.37;87.73;101135.39;217966;1254;140517;-68
2023/02/12 00:20:59;;;;;;;9.50;4.00;;;;;;;3.26;87.62;101143.38;217908;1256;139714;-71
2023/02/12 00:26:09;;;;;;;6.40;2.90;;;;;;;3.13;87.49;101156.85;217775;1259;139216;-66
2023/02/12 00:31:17;;;;;;;4.20;3.70;;;;;;;3.01;87.38;101151.37;217876;1254;140413;-67
2023/02/12 00:36:24;;;;;;;5.40;3.70;;;;;;;2.91;87.20;101165.10;217959;1254;141657;-70
2023/02/12 00:41:29;;;;;;;3.60;2.50;;;;;;;2.81;87.39;101186.65;218859;1256;141421;-70
2023/02/12 00:46:34;;;;;;;10.00;3.00;;;;;;;2.74;86.93;101200.54;218136;1253;140272;-67
2023/02/12 00:51:39;;;;;;;7.50;3.10;;;;;;;2.69;87.44;101220.01;218347;1253;140611;-69
2023/02/12 00:56:44;;;;;;;9.10;3.10;;;;;;;2.63;87.24;101227.96;219116;1256;139328;-66
2023/02/12 01:01:48;;;;;;;3.40;2.30;;;;;;;2.55;86.88;101233.03;218061;1254;141391;-68
2023/02/12 01:06:53;;;;;;;3.80;2.00;;;;;;;2.45;86.62;101257.79;220820;1253;140048;-70
2023/02/12 01:11:57;;;;;;;5.50;2.70;;;;;;;2.29;86.44;101254.98;217986;1254;140467;-70
2023/02/12 01:17:01;;;;;;;5.70;2.70;;;;;;;2.19;86.22;101255.23;218001;1254;139122;-69
2023/02/12 01:22:06;;;;;;;3.70;1.90;;;;;;;2.06;86.11;101260.19;218448;1254;139189;-73
2023/02/12 01:27:11;;;;;;;6.50;2.00;;;;;;;1.93;86.05;101269.11;217784;1254;141612;-68
2023/02/12 01:32:16;;;;;;;1.40;1.30;;;;;;;1.86;86.07;101278.84;218360;1254;139368;-69
2023/02/12 01:37:21;;;;;;;3.30;1.70;;;;;;;1.74;85.67;101280.96;217948;1254;141040;-68
2023/02/12 01:42:26;;;;;;;4.30;2.70;;;;;;;1.60;85.92;101291.88;217882;1254;139329;-67
2023/02/12 01:47:31;;;;;;;10.20;3.40;;;;;;;1.51;85.77;101302.52;217923;1256;140802;-68
2023/02/12 01:52:38;;;;;;;4.50;2.00;;;;;;;1.44;85.85;101307.20;218571;1254;140501;-66
2023/02/12 01:57:47;;;;;;;4.40;2.00;;;;;;;1.31;85.82;101320.83;219061;1254;140553;-75
2023/02/12 02:02:56;;;;;;;6.20;2.20;;;;;;;1.18;85.77;101320.44;218225;1253;139083;-76
2023/02/12 02:08:01;;;;;;;3.40;1.90;;;;;;;1.12;85.68;101315.17;218056;1254;141191;-73
2023/02/12 02:18:30;;;;;;;2.90;1.70;;;;;;;0.93;85.47;101333.66;218664;1254;139193;-68
2023/02/12 02:23:58;;;;;;;12.90;2.70;;;;;;;0.87;85.78;101337.00;218747;1256;140951;-67
2023/02/12 02:29:33;;;;;;;2.90;1.70;;;;;;;0.91;85.76;101346.02;218550;1254;140864;-68
2023/02/12 02:34:48;;;;;;;3.70;1.90;;;;;;;0.93;85.97;101361.92;218883;1256;141633;-66
2023/02/12 02:40:12;;;;;;;3.60;1.80;;;;;;;0.92;85.93;101364.83;218674;1253;139366;-67
2023/02/12 02:45:38;;;;;;;3.30;2.00;;;;;;;0.90;85.54;101376.43;220249;1253;233639;-66
2023/02/12 02:50:51;;;;;;;4.50;2.10;;;;;;;0.89;85.42;101389.60;220931;1254;141077;-67
2023/02/12 02:56:01;;;;;;;7.30;2.20;;;;;;;0.90;85.38;101402.13;220787;1254;140407;-70
2023/02/12 03:01:13;;;;;;;6.80;2.50;;;;;;;0.88;85.67;101413.89;218966;1254;141907;-70
2023/02/12 03:06:38;;;;;;;4.20;3.80;;;;;;;0.89;85.53;101415.69;220923;1253;140659;-70
2023/02/12 03:11:45;;;;;;;2.20;2.10;;;;;;;0.94;85.56;101420.70;220910;1254;139858;-70
2023/02/12 03:16:52;;;;;;;2.70;2.10;;;;;;;0.91;85.30;101428.45;220084;1254;141170;-72
2023/02/12 03:22:20;;;;;;;5.00;2.60;;;;;;;0.84;85.10;101436.13;218260;1253;139919;-69
2023/02/12 03:27:33;;;;;;;;;;;;;;;0.79;84.88;101440.00;218472;1254;139385;-65
2023/02/12 03:33:29;;;;;;;3.30;2.70;;;;;;;0.71;84.96;101451.55;218973;1254;126613;-66
2023/02/12 03:38:55;;;;;;;2.60;1.80;;;;;;;0.65;85.37;101470.45;217673;1266;139630;-66
2023/02/12 03:44:33;;;;;;;4.40;1.80;;;;;;;0.66;85.07;101473.50;218816;1254;139319;-67
2023/02/12 03:50:03;;;;;;;4.50;3.90;;;;;;;0.62;84.78;101490.11;218753;1254;140926;-66
2023/02/12 03:55:07;;;;;;;6.40;2.40;;;;;;;0.54;84.83;101500.59;218792;1254;139702;-65
2023/02/12 04:00:22;;;;;;;6.20;2.50;;;;;;;0.50;84.81;101502.15;218123;1256;139076;-68
2023/02/12 04:05:27;;;;;;;5.90;3.40;;;;;;;0.54;84.65;101510.25;218875;1254;351095;-65
2023/02/12 04:11:02;;;;;;;2.00;1.90;;;;;;;0.51;84.60;101517.33;218525;1254;140318;-64
2023/02/12 04:16:25;;;;;;;2.70;1.80;;;;;;;0.43;84.25;101520.38;218222;1254;139814;-63
2023/02/12 04:21:40;;;;;;;4.80;1.70;;;;;;;0.34;84.05;101519.36;218278;1256;138979;-65
2023/02/12 04:27:05;;;;;;;3.80;2.50;;;;;;;0.29;84.09;101524.45;218090;1256;140187;-63
2023/02/12 04:32:42;;;;;;;3.40;1.90;;;;;;;0.27;84.01;101535.01;219110;1254;139896;-66
2023/02/12 04:37:55;;;;;;;3.30;2.50;;;;;;;0.22;83.88;101542.40;219031;1254;139669;-67
2023/02/12 04:43:00;;;;;;;2.40;2.10;;;;;;;0.22;84.22;101557.45;220020;1254;140210;-69
2023/02/12 04:48:05;;;;;;;5.50;2.50;;;;;;;0.22;83.76;101559.30;218057;1254;139704;-68
2023/02/12 04:53:09;;;;;;;4.00;2.40;;;;;;;0.21;84.12;101562.89;218163;1256;140327;-69
2023/02/12 04:58:15;;;;;;;4.10;2.30;;;;;;;0.19;83.96;101570.05;219998;1256;139642;-68
2023/02/12 05:03:20;;;;;;;4.80;2.50;;;;;;;0.22;83.70;101574.70;220532;1253;139703;-69
2023/02/12 05:08:24;;;;;;;4.90;3.50;;;;;;;0.28;83.57;101579.48;218576;1256;139384;-69
2023/02/12 05:13:29;;;;;;;4.60;2.60;;;;;;;0.31;83.78;101591.12;218150;1254;139215;-69
2023/02/12 05:18:34;;;;;;;7.40;5.80;;;;;;;0.33;83.61;101599.67;219268;1254;139747;-68
2023/02/12 05:23:40;;;;;;;2.30;2.00;;;;;;;0.33;83.53;101604.43;218536;1254;140133;-69
2023/02/12 05:28:47;;;;;;;4.10;2.40;;;;;;;0.41;83.68;101600.45;218514;1256;140787;-69
2023/02/12 05:33:52;;;;;;;3.00;2.60;;;;;;;0.44;83.73;101609.73;217944;1254;140479;-69
2023/02/12 05:38:59;;;;;;;2.20;2.10;;;;;;;0.39;83.35;101608.13;218823;1254;139145;-69
2023/02/12 05:44:05;;;;;;;18.80;3.90;;;;;;;0.38;83.33;101609.52;218068;1254;139163;-70
2023/02/12 05:49:11;;;;;;;3.60;2.30;;;;;;;0.38;82.97;101615.41;218105;1254;139088;-69
2023/02/12 05:54:16;;;;;;;4.10;2.30;;;;;;;0.39;83.03;101627.38;218137;1254;140176;-69
2023/02/12 05:59:22;;;;;;;5.60;3.40;;;;;;;0.39;83.32;101637.58;218326;1255;140172;-69
2023/02/12 06:04:28;;;;;;;6.70;4.40;;;;;;;0.40;83.49;101645.52;218063;1255;150158;-71
2023/02/12 06:09:33;;;;;;;2.80;2.60;;;;;;;0.37;83.19;101652.34;218294;1259;139828;-70
2023/02/12 06:14:40;;;;;;;3.20;2.50;;;;;;;0.34;83.35;101665.54;218322;1254;138698;-70
2023/02/12 06:19:44;;;;;;;2.30;2.00;;;;;;;0.37;83.15;101674.08;218175;1257;139199;-69
2023/02/12 06:24:50;;;;;;;3.20;2.50;;;;;;;0.32;82.93;101684.61;218292;1256;139474;-70
2023/02/12 06:29:54;;;;;;;3.30;3.10;;;;;;;0.30;83.30;101682.52;218948;1254;139017;-71
2023/02/12 06:34:58;;;;;;;3.80;2.70;;;;;;;0.30;83.14;101691.00;219149;1257;138630;-69
2023/02/12 06:40:02;;;;;;;1.70;1.60;;;;;;;0.33;83.18;101695.16;218622;1256;138713;-70
2023/02/12 06:45:07;;;;;;;3.70;2.10;;;;;;;0.42;83.46;101706.23;218163;1257;139119;-69
2023/02/12 06:50:13;;;;;;;4.10;2.40;;;;;;;0.52;83.64;101721.89;218193;1254;140763;-69
2023/02/12 06:55:18;;;;;;;2.80;2.20;;;;;;;0.60;83.52;101738.17;220053;1256;139348;-69
2023/02/12 07:00:23;;;;;;;5.80;2.50;;;;;;;0.64;83.62;101751.80;220291;1256;138947;-70
2023/02/12 07:05:28;;;;;;;3.70;2.10;;;;;;;0.71;83.14;101757.45;218424;1256;140068;-68
2023/02/12 07:10:33;;;;;;;2.70;1.70;;;;;;;0.79;83.02;101757.83;218332;1256;139952;-69
2023/02/12 07:15:39;;;;;;;3.60;2.80;;;;;;;0.87;82.86;101756.82;218286;1254;140800;-71
2023/02/12 07:20:43;;;;;;;3.40;3.10;;;;;;;0.95;82.60;101755.52;219211;1256;141301;-67
2023/02/12 07:25:55;;;;;;;3.50;3.10;;;;;;;1.08;82.57;101756.95;218651;1257;139729;-68
2023/02/12 07:31:06;;;;;;;3.80;2.90;;;;;;;1.12;82.16;101759.55;218139;1256;138989;-68
2023/02/12 07:36:15;;;;;;;2.60;2.30;;;;;;;1.13;82.20;101767.33;218080;1259;139814;-69
2023/02/12 07:41:22;;;;;;;3.20;2.70;;;;;;;1.22;81.97;101765.91;218949;1257;138766;-69
2023/02/12 07:46:31;;;;;;;3.30;2.40;;;;;;;1.39;81.70;101775.95;217850;1254;140229;-69
2023/02/12 07:51:37;;;;;;;4.20;3.90;;;;;;;1.49;81.39;101783.83;218522;1257;139786;-68
2023/02/12 07:56:45;;;;;;;6.40;3.10;;;;;;;1.57;81.48;101785.42;218955;1254;140029;-68
2023/02/12 08:01:51;;;;;;;3.40;2.90;;;;;;;1.65;81.20;101788.09;218154;1254;139440;-69
2023/02/12 08:06:56;;;;;;;2.90;2.70;;;;;;;1.72;81.14;101794.35;217876;1258;139181;-68
2023/02/12 08:11:59;;;;;;;4.40;1.90;;;;;;;1.79;80.56;101800.48;218139;1255;139123;-69
2023/02/12 08:17:04;;;;;;;3.00;2.30;;;;;;;1.85;80.02;101800.48;218645;1254;139386;-68
2023/02/12 08:22:08;;;;;;;3.40;2.50;;;;;;;1.87;79.79;101802.61;218907;1259;139595;-68
2023/02/12 08:27:12;;;;;;;3.60;1.90;;;;;;;1.99;80.09;101794.95;219245;1256;139141;-70
2023/02/12 08:32:16;;;;;;;4.40;1.90;;;;;;;2.11;79.67;101797.59;219392;1254;140267;-71
2023/02/12 08:37:20;;;;;;;2.20;2.00;;;;;;;2.25;79.63;101798.30;218016;1254;141667;-71
2023/02/12 08:42:26;;;;;;;2.90;2.70;;;;;;;2.39;79.22;101810.44;218058;1257;141444;-71
2023/02/12 08:47:33;;;;;;;1.80;1.50;;;;;;;2.40;78.36;101818.42;218120;1260;139615;-71
2023/02/12 08:52:38;;;;;;;2.20;2.00;;;;;;;2.60;78.81;101822.36;220796;1254;140976;-73
2023/02/12 08:57:44;;;;;;;2.90;1.90;;;;;;;2.99;79.04;101815.95;220276;1254;140674;-72
2023/02/12 09:02:50;;;;;;;3.30;2.00;;;;;;;3.30;78.59;101823.91;218415;1254;140915;-72
2023/02/12 09:07:54;;;;;;;4.20;3.10;;;;;;;3.40;77.25;101823.19;218107;1254;140377;-72
2023/02/12 09:12:58;;;;;;;2.50;2.30;;;;;;;3.47;77.12;101823.08;218584;1256;140560;-70
2023/02/12 09:18:02;;;;;;;3.10;2.40;;;;;;;3.50;76.88;101834.02;218025;1254;139923;-69
2023/02/12 09:23:08;;;;;;;3.50;1.80;;;;;;;3.48;76.67;101841.60;218052;1255;141238;-68
2023/02/12 09:28:13;;;;;;;3.40;2.00;;;;;;;3.40;76.48;101845.80;217878;1254;138874;-69
2023/02/12 09:33:16;;;;;;;4.70;2.40;;;;;;;3.47;76.36;101845.40;217973;1257;141085;-69
2023/02/12 09:38:20;;;;;;;1.80;1.70;;;;;;;3.54;76.26;101845.63;217982;1254;141531;-68
2023/02/12 09:43:46;;;;;;;3.70;2.60;;;;;;;3.68;76.34;101851.58;218186;1253;140357;-68
2023/02/12 09:49:08;;;;;;;7.00;2.60;;;;;;;3.69;75.68;101858.36;217810;1257;139462;-68
2023/02/12 09:54:15;;;;;;;2.40;2.20;;;;;;;3.57;75.90;101846.92;217959;1254;138775;-69
2023/02/12 09:59:41;;;;;;;2.30;1.90;;;;;;;3.73;75.90;101848.99;217852;1257;140799;-68
2023/02/12 10:04:47;;;;;;;2.40;1.80;;;;;;;4.04;75.96;101839.62;217874;1258;139657;-68
2023/02/12 10:10:11;;;;;;;;;;;;;;;4.14;75.04;101842.45;218002;1254;139765;-69
2023/02/12 10:15:37;;;;;;;4.00;2.60;;;;;;;4.05;74.99;101842.39;218250;1255;126464;-68
2023/02/12 10:20:45;;;;;;;2.60;2.40;;;;;;;4.29;75.28;101840.69;217733;1254;140292;-69
2023/02/12 10:25:49;;;;;;;6.30;2.80;;;;;;;4.48;75.06;101839.27;218016;1257;139931;-69
2023/02/12 10:31:06;;;;;;;3.60;3.20;;;;;;;4.60;74.14;101835.95;218191;1254;140207;-67
2023/02/12 10:36:22;;;;;;;4.20;3.00;;;;;;;4.59;73.69;101837.46;218738;1253;139016;-70
2023/02/12 10:41:29;;;;;;;2.80;2.50;;;;;;;4.85;73.65;101844.86;218290;1254;139350;-67
2023/02/12 10:46:32;;;;;;;2.80;2.50;;;;;;;5.04;73.22;101845.11;217934;1254;139922;-70
2023/02/12 10:52:03;;;;;;;3.80;2.60;;;;;;;5.02;72.70;101838.16;217868;1260;140836;-69
2023/02/12 10:57:23;;;;;;;4.60;3.40;;;;;;;5.00;72.69;101839.73;218985;1256;139888;-69
2023/02/12 11:02:30;;;;;;;3.30;3.00;;;;;;;5.12;72.75;101835.48;217945;1257;140258;-68
2023/02/12 11:07:48;;;;;;;3.80;3.00;;;;;;;5.18;72.16;101841.06;218926;1254;140046;-70
2023/02/12 11:12:53;;;;;;;6.00;3.50;;;;;;;5.22;72.13;101835.81;218969;1254;139781;-69
2023/02/12 11:18:03;;;;;;;5.40;3.80;;;;;;;5.31;72.16;101843.77;217977;1254;139729;-70
2023/02/12 11:23:25;;;;;;;3.10;2.80;;;;;;;5.37;71.95;101836.52;218385;1258;139666;-71
2023/02/12 11:28:34;;;;;;;3.20;2.50;;;;;;;5.39;71.13;101830.42;217489;1257;140038;-70
2023/02/12 11:33:41;;;;;;;4.10;3.70;;;;;;;5.43;71.49;101824.27;219320;1254;140151;-71
2023/02/12 11:38:53;;;;;;;4.20;3.00;;;;;;;5.60;71.60;101817.62;217631;1255;139686;-72
2023/02/12 11:43:57;;;;;;;5.40;4.20;;;;;;;5.63;71.39;101815.34;217951;1254;139648;-70
2023/02/12 11:49:01;;;;;;;3.60;3.30;;;;;;;5.59;71.57;101811.23;217989;1259;139503;-71
2023/02/12 11:54:06;;;;;;;4.80;3.30;;;;;;;5.42;71.39;101810.02;217645;1258;139723;-71
2023/02/12 11:59:39;;;;;;;8.10;5.80;;;;;;;5.34;71.17;101807.45;218073;1254;140344;-73
2023/02/12 12:04:48;;;;;;;5.20;4.80;;;;;;;5.54;71.41;101805.40;218398;1253;139341;-71
2023/02/12 12:10:04;;;;;;;7.70;4.70;;;;;;;5.75;71.44;101805.19;217879;1254;139128;-76
2023/02/12 12:20:55;;;;;;;6.40;3.90;;;;;;;5.78;71.21;101822.41;218358;1253;139352;-67
2023/02/12 12:26:07;;;;;;;10.00;4.10;;;;;;;5.73;70.95;101818.80;219625;1253;139323;-83
2023/02/12 12:31:19;;;;;;;13.10;7.30;;;;;;;5.60;70.97;101820.40;219166;1254;140372;-82
2023/02/12 12:36:36;;;;;;;11.50;6.00;;;;;;;5.46;70.64;101813.02;218699;1254;206851;-70
2023/02/12 12:42:03;;;;;;;31.20;9.60;;;;;;;5.38;70.49;101809.05;217763;1254;139910;-70
2023/02/12 12:47:18;;;;;;;26.00;10.30;;;;;;;5.35;70.97;101815.90;217994;1256;141051;-70
2023/02/12 12:52:42;;;;;;;11.10;5.40;;;;;;;5.40;71.01;101805.50;219169;1254;139205;-71
2023/02/12 12:58:14;;;;;;;9.20;5.10;;;;;;;5.36;70.61;101805.33;218592;1254;140328;-70
2023/02/12 13:03:57;;;;;;;10.50;5.20;;;;;;;5.23;70.59;101803.14;218798;1253;141645;-70
2023/02/12 13:09:19;;;;;;;12.50;7.30;;;;;;;5.20;70.64;101812.23;217955;1256;139445;-70
2023/02/12 13:14:46;;;;;;;7.00;4.50;;;;;;;5.21;70.78;101809.86;218742;1253;140428;-70
2023/02/12 13:20:15;;;;;;;8.00;3.60;;;;;;;5.17;70.98;101810.13;217613;1254;138901;-71
2023/02/12 13:25:39;;;;;;;4.70;4.20;;;;;;;5.08;70.56;101807.94;218269;1254;139121;-72
2023/02/12 13:30:48;;;;;;;10.80;6.00;;;;;;;5.04;70.54;101808.27;217796;1254;139882;-68
2023/02/12 13:36:00;;;;;;;9.40;5.50;;;;;;;5.06;70.85;101804.20;217793;1254;139707;-73
2023/02/12 13:41:08;;;;;;;7.00;5.00;;;;;;;5.07;70.90;101800.92;217677;1254;139411;-66
2023/02/12 13:46:54;;;;;;;8.00;5.70;;;;;;;5.06;70.74;101798.08;217735;1254;139487;-68
2023/02/12 13:52:13;;;;;;;8.20;5.80;;;;;;;5.06;70.88;101803.85;217778;1254;139797;-66
2023/02/12 13:57:20;;;;;;;15.10;9.70;;;;;;;5.05;70.92;101802.00;218116;1257;140835;-66
2023/02/12 14:02:32;;;;;;;11.80;9.80;;;;;;;5.01;70.80;101798.02;218589;1254;140030;-65
2023/02/12 14:07:44;;;;;;;;;;;;;;;4.95;71.05;101795.59;217494;1254;140394;-66
2023/02/12 14:12:51;;;;;;;15.20;8.30;;;;;;;4.74;70.84;101794.13;218722;1256;125621;-70
2023/02/12 14:18:05;;;;;;;18.30;8.50;;;;;;;4.55;71.09;101793.52;217748;1259;140052;-67
2023/02/12 14:23:29;;;;;;;12.80;9.80;;;;;;;4.42;71.08;101798.77;217850;1256;139592;-69
2023/02/12 14:29:03;;;;;;;13.10;8.60;;;;;;;4.35;71.25;101800.80;217777;1254;140280;-70
2023/02/12 14:34:07;;;;;;;20.20;8.40;;;;;;;4.32;71.39;101803.88;220161;1253;140486;-68
2023/02/12 14:39:18;;;;;;;12.50;8.10;;;;;;;4.26;71.46;101800.27;218263;1254;140254;-71
2023/02/12 14:44:22;;;;;;;14.30;10.20;;;;;;;4.19;71.72;101796.20;218686;1256;138944;-73
2023/02/12 14:49:43;;;;;;;14.00;9.30;;;;;;;4.12;71.84;101797.18;217912;1254;139633;-70
2023/02/12 14:54:56;;;;;;;13.70;8.70;;;;;;;4.05;72.00;101796.97;220748;1254;139836;-72
2023/02/12 15:00:25;;;;;;;14.80;8.60;;;;;;;4.10;72.09;101795.66;220749;1254;161179;-71
2023/02/12 15:05:40;;;;;;;12.10;7.50;;;;;;;4.05;72.48;101795.22;219857;1253;139262;-71
2023/02/12 15:10:52;;;;;;;8.50;7.20;;;;;;;3.94;72.42;101798.17;220119;1253;139641;-69
2023/02/12 15:16:11;;;;;;;10.60;7.60;;;;;;;3.92;72.85;101798.88;217729;1253;140231;-72
2023/02/12 15:21:23;;;;;;;13.10;9.70;;;;;;;3.86;73.19;101792.08;218272;1253;141432;-71
2023/02/12 15:26:32;;;;;;;15.60;7.40;;;;;;;3.76;73.30;101792.98;218727;1254;139742;-68
2023/02/12 15:31:38;;;;;;;16.50;7.10;;;;;;;3.68;73.88;101790.02;218466;1254;140222;-66
2023/02/12 15:36:45;;;;;;;14.90;8.40;;;;;;;3.66;73.81;101783.14;219555;1256;139530;-69
2023/02/12 15:41:51;;;;;;;11.50;8.50;;;;;;;3.63;74.08;101780.58;218373;1256;139394;-67
2023/02/12 15:46:57;;;;;;;549.50;286.40;;;;;;;3.58;74.08;101777.91;217588;1254;139131;-74
2023/02/12 15:52:08;;;;;;;;;;;;;;;3.51;74.69;101783.64;217660;1254;139679;-71
2023/02/12 15:57:21;;;;;;;21.20;10.90;;;;;;;3.42;74.63;101792.57;217982;1254;125735;-76
2023/02/12 16:02:29;;;;;;;16.30;11.00;;;;;;;3.38;74.83;101792.23;217628;1254;139271;-71
2023/02/12 16:07:36;;;;;;;11.80;8.10;;;;;;;3.33;75.11;101783.21;217823;1253;763403;-67
2023/02/12 16:12:41;;;;;;;15.10;9.30;;;;;;;3.34;75.07;101789.79;217975;1254;142096;-67
2023/02/12 16:17:47;;;;;;;15.00;9.60;;;;;;;3.37;75.32;101787.08;217863;1254;140331;-68
2023/02/12 16:22:52;;;;;;;18.30;10.00;;;;;;;3.36;75.62;101790.13;218004;1254;140473;-70
2023/02/12 16:28:04;;;;;;;13.30;7.40;;;;;;;3.31;75.59;101787.93;219468;1254;139536;-73
2023/02/12 16:33:31;;;;;;;13.40;7.80;;;;;;;3.24;75.54;101791.58;217751;1254;139939;-68
2023/02/12 16:39:10;;;;;;;16.70;8.40;;;;;;;3.21;75.67;101798.33;218653;1256;139921;-70
2023/02/12 16:44:18;;;;;;;16.20;9.20;;;;;;;3.21;76.54;101799.91;217867;1254;140785;-69
2023/02/12 16:49:25;;;;;;;13.50;8.20;;;;;;;3.26;76.76;101806.14;220823;1254;139690;-70
2023/02/12 16:54:33;;;;;;;17.10;10.50;;;;;;;3.29;76.78;101808.34;220851;1253;139584;-68
2023/02/12 16:59:42;;;;;;;16.30;9.50;;;;;;;3.34;76.87;101809.52;219290;1256;140132;-69
2023/02/12 17:04:47;;;;;;;20.60;11.10;;;;;;;3.40;76.81;101809.75;220274;1254;140242;-69
2023/02/12 17:09:51;;;;;;;21.90;13.90;;;;;;;3.48;76.97;101807.52;218568;1254;140587;-68
2023/02/12 17:14:56;;;;;;;24.50;13.20;;;;;;;3.55;77.42;101813.69;220105;1256;139307;-65
2023/02/12 17:20:02;;;;;;;20.90;11.80;;;;;;;3.58;77.27;101818.52;218198;1256;139998;-67
2023/02/12 17:25:09;;;;;;;22.30;11.30;;;;;;;3.51;77.53;101811.40;218626;1253;139470;-68
2023/02/12 17:30:23;;;;;;;23.40;10.90;;;;;;;3.47;77.51;101810.02;218240;1257;140352;-71
2023/02/12 17:35:30;;;;;;;21.70;12.20;;;;;;;3.51;77.60;101809.35;218849;1254;140340;-67
2023/02/12 17:40:39;;;;;;;20.60;12.90;;;;;;;3.52;78.01;101801.99;217837;1254;140279;-73
2023/02/12 17:45:45;;;;;;;28.30;16.30;;;;;;;3.55;78.50;101795.61;218557;1254;139931;-78
2023/02/12 17:50:56;;;;;;;24.80;13.40;;;;;;;3.59;78.23;101793.15;217889;1257;141352;-69
2023/02/12 17:56:03;;;;;;;26.80;17.10;;;;;;;3.68;78.97;101790.66;218521;1253;142316;-69
2023/02/12 18:01:10;;;;;;;25.00;16.50;;;;;;;3.73;79.21;101788.30;219645;1253;140278;-70
2023/02/12 18:06:25;;;;;;;26.40;12.50;;;;;;;3.73;79.22;101789.52;218702;1256;139699;-69
2023/02/12 18:11:31;;;;;;;26.40;15.00;;;;;;;3.70;79.65;101787.85;219013;1254;140049;-67
2023/02/12 18:16:35;;;;;;;26.90;12.20;;;;;;;3.69;79.87;101789.88;219174;1254;139537;-67
2023/02/12 18:21:43;;;;;;;22.10;11.10;;;;;;;3.73;79.68;101794.29;219551;1254;140518;-69
2023/02/12 18:26:49;;;;;;;23.50;14.10;;;;;;;3.81;80.01;101791.80;219385;1253;140857;-71
2023/02/12 18:31:54;;;;;;;21.30;15.10;;;;;;;3.92;80.47;101788.35;219334;1253;139260;-71
2023/02/12 18:36:58;;;;;;;32.20;17.30;;;;;;;3.94;80.28;101789.38;218164;1253;140688;-70
2023/02/12 18:42:03;;;;;;;22.20;11.40;;;;;;;3.96;80.38;101790.95;217998;1256;139723;-70
2023/02/12 18:47:10;;;;;;;21.30;13.70;;;;;;;3.98;80.55;101787.93;220869;1256;140745;-70
2023/02/12 18:52:15;;;;;;;18.50;12.80;;;;;;;4.04;80.75;101783.53;220920;1253;141604;-70
2023/02/12 18:57:20;;;;;;;24.90;13.00;;;;;;;4.10;80.82;101779.80;220950;1253;141037;-70
2023/02/12 19:02:25;;;;;;;28.70;12.70;;;;;;;4.19;80.94;101779.67;220672;1253;140715;-70
2023/02/12 19:07:30;;;;;;;24.10;12.20;;;;;;;4.27;80.61;101784.41;220279;1254;141409;-70
2023/02/12 19:12:34;;;;;;;20.60;11.20;;;;;;;4.29;80.56;101780.07;218257;1253;140493;-70
2023/02/12 19:17:39;;;;;;;23.50;12.20;;;;;;;4.30;81.15;101776.80;218105;1254;139198;-70
2023/02/12 19:22:43;;;;;;;18.70;10.90;;;;;;;4.28;80.63;101777.36;217993;1254;140885;-70
2023/02/12 19:27:50;;;;;;;22.60;12.50;;;;;;;4.31;81.01;101777.62;218084;1253;141123;-70
2023/02/12 19:32:54;;;;;;;20.20;12.00;;;;;;;4.31;80.76;101775.80;217982;1256;141285;-71
2023/02/12 19:37:59;;;;;;;15.20;11.40;;;;;;;4.24;80.78;101772.09;217937;1254;140023;-70
2023/02/12 19:43:05;;;;;;;17.90;10.20;;;;;;;4.12;80.67;101768.52;219708;1256;139584;-72
2023/02/12 19:48:10;;;;;;;27.50;12.50;;;;;;;4.11;80.77;101766.91;217956;1253;140231;-71
2023/02/12 19:53:16;;;;;;;28.30;14.90;;;;;;;4.11;81.09;101763.73;218322;1254;139747;-70
2023/02/12 19:58:21;;;;;;;17.50;12.50;;;;;;;4.11;81.01;101767.23;217866;1256;141318;-71
2023/02/12 20:03:28;;;;;;;21.80;11.70;;;;;;;4.10;81.29;101765.55;217743;1254;139746;-70
2023/02/12 20:08:38;;;;;;;26.80;15.60;;;;;;;4.16;81.43;101763.23;217992;1253;139991;-71
2023/02/12 20:13:44;;;;;;;34.50;16.80;;;;;;;4.19;81.96;101747.77;217756;1255;139795;-70
2023/02/12 20:18:53;;;;;;;30.10;16.80;;;;;;;4.13;81.96;101741.84;218458;1253;141666;-70
2023/02/12 20:24:00;;;;;;;39.30;17.20;;;;;;;4.07;82.10;101739.60;217945;1256;139742;-71
2023/02/12 20:29:06;;;;;;;48.10;19.40;;;;;;;4.07;81.72;101737.66;218593;1256;141438;-72
2023/02/12 20:34:15;;;;;;;36.30;20.10;;;;;;;4.03;82.18;101726.91;218203;1256;141685;-72
2023/02/12 20:39:20;;;;;;;43.50;21.20;;;;;;;4.05;82.46;101730.46;218295;1254;141473;-69
2023/02/12 20:44:29;;;;;;;;;;;;;;;4.03;82.67;101726.22;220656;1253;139265;-71
2023/02/12 20:49:45;;;;;;;38.40;20.10;;;;;;;4.02;82.55;101727.59;221322;1253;127131;-71
2023/02/12 20:54:52;;;;;;;49.60;22.00;;;;;;;4.01;82.37;101734.83;219577;1254;140142;-70
2023/02/12 21:00:04;;;;;;;42.20;21.80;;;;;;;4.00;82.82;101739.16;219612;1254;140241;-70
2023/02/12 21:05:10;;;;;;;37.40;18.50;;;;;;;4.06;83.12;101737.63;218113;1257;224499;-70
2023/02/12 21:10:16;;;;;;;45.50;21.20;;;;;;;4.16;83.05;101736.34;217970;1257;140874;-71
2023/02/12 21:15:21;;;;;;;35.50;19.10;;;;;;;4.15;82.89;101739.52;217985;1253;139862;-73
2023/02/12 21:20:27;;;;;;;38.70;22.00;;;;;;;4.14;83.06;101742.14;218002;1254;139898;-68
2023/02/12 21:25:32;;;;;;;34.20;18.70;;;;;;;4.18;83.55;101739.30;217766;1254;140168;-70
2023/02/12 21:30:37;;;;;;;38.20;20.20;;;;;;;4.19;83.43;101737.61;218618;1254;140070;-70
2023/02/12 21:35:43;;;;;;;45.20;19.60;;;;;;;4.24;83.32;101731.00;217977;1254;140145;-71
2023/02/12 21:40:48;;;;;;;36.10;19.20;;;;;;;4.25;83.24;101728.36;218241;1254;141015;-70
2023/02/12 21:45:53;;;;;;;33.80;17.70;;;;;;;4.21;82.85;101728.59;218154;1254;141677;-71
2023/02/12 21:50:59;;;;;;;33.30;15.80;;;;;;;4.17;83.41;101723.33;218919;1257;138848;-72
2023/02/12 21:56:10;;;;;;;39.40;18.70;;;;;;;4.19;83.46;101724.80;218328;1254;140980;-71
2023/02/12 22:01:21;;;;;;;32.20;16.70;;;;;;;4.19;83.58;101726.13;218210;1254;140173;-72
2023/02/12 22:06:29;;;;;;;33.10;16.70;;;;;;;4.17;83.75;101722.30;218614;1254;141033;-71
2023/02/12 22:11:36;;;;;;;32.60;14.70;;;;;;;4.20;83.92;101725.77;218215;1254;139736;-72
2023/02/12 22:16:43;;;;;;;60.40;19.80;;;;;;;4.19;83.40;101720.18;218880;1254;140059;-71
2023/02/12 22:21:50;;;;;;;41.40;16.20;;;;;;;4.22;84.11;101726.20;218085;1254;139696;-71
2023/02/12 22:26:57;;;;;;;27.90;13.40;;;;;;;4.24;84.42;101723.42;219105;1253;140590;-71
2023/02/12 22:32:03;;;;;;;36.20;14.10;;;;;;;4.23;84.04;101724.56;218970;1256;140229;-71
2023/02/12 22:37:09;;;;;;;21.10;11.50;;;;;;;4.27;84.01;101728.37;220096;1254;140597;-72
2023/02/12 22:42:14;;;;;;;26.40;11.50;;;;;;;4.29;84.16;101727.50;220827;1254;139536;-72
2023/02/12 22:47:22;;;;;;;29.30;12.30;;;;;;;4.28;84.39;101726.14;220296;1254;140507;-72
2023/02/12 22:52:27;;;;;;;26.00;11.00;;;;;;;4.32;84.35;101724.36;220967;1254;140049;-72
2023/02/12 22:57:32;;;;;;;12.80;7.40;;;;;;;4.41;84.35;101724.42;218953;1256;140671;-71
2023/02/12 23:02:36;;;;;;;20.80;11.60;;;;;;;4.41;84.40;101719.44;219564;1254;140164;-71
2023/02/12 23:07:39;;;;;;;32.20;13.70;;;;;;;4.36;84.21;101713.92;218145;1254;140722;-71
2023/02/12 23:12:43;;;;;;;24.80;11.10;;;;;;;4.42;84.85;101717.42;218513;1254;154492;-71
2023/02/12 23:17:50;;;;;;;26.50;12.60;;;;;;;4.41;84.49;101717.20;218786;1254;141174;-71
2023/02/12 23:22:54;;;;;;;28.80;12.00;;;;;;;4.37;84.58;101708.95;218385;1256;141163;-70
2023/02/12 23:28:00;;;;;;;26.40;11.40;;;;;;;4.35;84.46;101706.48;218269;1256;140217;-71
2023/02/12 23:33:04;;;;;;;19.60;12.20;;;;;;;4.40;84.88;101704.40;218184;1254;139449;-71
2023/02/12 23:38:09;;;;;;;21.90;12.00;;;;;;;4.45;85.17;101700.05;218677;1254;141433;-72
2023/02/12 23:43:14;;;;;;;25.60;10.10;;;;;;;4.47;84.72;101702.55;218231;1254;139510;-72